KCYS

Cheyenne Regional / Jerry Olson Field Airport

Cheyenne, Wyoming, USA
METAR KCYS 230753Z AUTO 29004KT 7SM SCT065 M12/M13 A2999 RMK AO2 SLP220 T11171128
Observed Flight Rules
Feb-23 @ 07:53 UTC (13 minutes ago) Visual Flight Rules
Wind Visibility Clouds
290° at 4 knots 7 miles
  • Scattered at 6,500' AGL
Temperatures Readings
Current -12°C / 10°F
Dewpoint -13°C / 9°F
Humidity 92%
Altimeter 29.99" Hg
Pressure 1022 hPa
Elevation 1868
METAR KCYS 230753Z AUTO 29004KT 7SM SCT065 M12/M13 A2999 RMK AO2 SLP220 T11171128
Observed Flight Rules
Feb-23 @ 07:53 UTC
(13 minutes ago)
VFR
Wind Visibility
290° at 4 knots 7 miles
Clouds
  • Scattered at 6,500' AGL
Temperature Dewpoint
-12°C / 10°F -13°C / 9°F
Humidity Altimeter Pressure
92% 29.99" Hg 1022 hPa